sensor_id;sensor_type;location;lat;lon;timestamp;pressure;altitude;pressure_sealevel;temperature
70969;BMP280;58630;43.022;25.100;2023-11-21T00:00:37;;;;10.40
70969;BMP280;58630;43.022;25.100;2023-11-21T00:03:02;;;;10.30
70969;BMP280;58630;43.022;25.100;2023-11-21T00:05:29;;;;10.30
70969;BMP280;58630;43.022;25.100;2023-11-21T00:07:54;;;;10.30
70969;BMP280;58630;43.022;25.100;2023-11-21T00:10:20;;;;10.30
70969;BMP280;58630;43.022;25.100;2023-11-21T00:12:46;;;;10.30
70969;BMP280;58630;43.022;25.100;2023-11-21T00:15:13;;;;10.30
70969;BMP280;58630;43.022;25.100;2023-11-21T00:17:39;;;;10.30
70969;BMP280;58630;43.022;25.100;2023-11-21T00:20:07;;;;10.20
70969;BMP280;58630;43.022;25.100;2023-11-21T00:22:36;;;;10.20
70969;BMP280;58630;43.022;25.100;2023-11-21T00:25:02;;;;10.20
70969;BMP280;58630;43.022;25.100;2023-11-21T00:27:29;;;;10.20
70969;BMP280;58630;43.022;25.100;2023-11-21T00:29:55;;;;10.20
70969;BMP280;58630;43.022;25.100;2023-11-21T00:32:20;;;;10.20
70969;BMP280;58630;43.022;25.100;2023-11-21T00:34:46;;;;10.20
70969;BMP280;58630;43.022;25.100;2023-11-21T00:37:11;;;;10.20
70969;BMP280;58630;43.022;25.100;2023-11-21T00:39:37;;;;10.20
70969;BMP280;58630;43.022;25.100;2023-11-21T00:42:02;;;;10.20
70969;BMP280;58630;43.022;25.100;2023-11-21T00:44:30;;;;10.10
70969;BMP280;58630;43.022;25.100;2023-11-21T00:46:55;;;;10.10
70969;BMP280;58630;43.022;25.100;2023-11-21T00:49:21;;;;10.10
70969;BMP280;58630;43.022;25.100;2023-11-21T00:51:47;;;;10.10
70969;BMP280;58630;43.022;25.100;2023-11-21T00:54:12;;;;10.10
70969;BMP280;58630;43.022;25.100;2023-11-21T00:56:38;;;;10.10
70969;BMP280;58630;43.022;25.100;2023-11-21T00:59:03;;;;10.00
70969;BMP280;58630;43.022;25.100;2023-11-21T01:01:30;;;;10.00
70969;BMP280;58630;43.022;25.100;2023-11-21T01:03:55;;;;10.00
70969;BMP280;58630;43.022;25.100;2023-11-21T01:06:21;;;;10.00
70969;BMP280;58630;43.022;25.100;2023-11-21T01:08:47;;;;10.00
70969;BMP280;58630;43.022;25.100;2023-11-21T01:11:12;;;;10.00
70969;BMP280;58630;43.022;25.100;2023-11-21T01:13:38;;;;10.00
70969;BMP280;58630;43.022;25.100;2023-11-21T01:16:04;;;;10.00
70969;BMP280;58630;43.022;25.100;2023-11-21T01:18:31;;;;10.00
70969;BMP280;58630;43.022;25.100;2023-11-21T01:20:57;;;;9.90
70969;BMP280;58630;43.022;25.100;2023-11-21T01:23:22;;;;9.90
70969;BMP280;58630;43.022;25.100;2023-11-21T01:25:48;;;;9.90
70969;BMP280;58630;43.022;25.100;2023-11-21T01:28:14;;;;9.90
70969;BMP280;58630;43.022;25.100;2023-11-21T01:30:39;;;;9.90
70969;BMP280;58630;43.022;25.100;2023-11-21T01:33:05;;;;9.90
70969;BMP280;58630;43.022;25.100;2023-11-21T01:35:30;;;;9.90
70969;BMP280;58630;43.022;25.100;2023-11-21T01:37:56;;;;9.90
70969;BMP280;58630;43.022;25.100;2023-11-21T01:40:22;;;;9.90
70969;BMP280;58630;43.022;25.100;2023-11-21T01:42:47;;;;9.80
70969;BMP280;58630;43.022;25.100;2023-11-21T01:45:13;;;;9.90
70969;BMP280;58630;43.022;25.100;2023-11-21T01:47:40;;;;9.80
70969;BMP280;58630;43.022;25.100;2023-11-21T01:50:10;;;;9.80
70969;BMP280;58630;43.022;25.100;2023-11-21T01:52:38;;;;9.80
70969;BMP280;58630;43.022;25.100;2023-11-21T01:55:05;;;;9.80
70969;BMP280;58630;43.022;25.100;2023-11-21T01:57:31;;;;9.80
70969;BMP280;58630;43.022;25.100;2023-11-21T01:59:57;;;;9.80
70969;BMP280;58630;43.022;25.100;2023-11-21T02:02:24;;;;9.80
70969;BMP280;58630;43.022;25.100;2023-11-21T02:04:49;;;;9.70
70969;BMP280;58630;43.022;25.100;2023-11-21T02:07:15;;;;9.80
70969;BMP280;58630;43.022;25.100;2023-11-21T02:09:40;;;;9.70
70969;BMP280;58630;43.022;25.100;2023-11-21T02:12:07;;;;9.70
70969;BMP280;58630;43.022;25.100;2023-11-21T02:14:35;;;;9.70
70969;BMP280;58630;43.022;25.100;2023-11-21T02:17:02;;;;9.70
70969;BMP280;58630;43.022;25.100;2023-11-21T02:19:28;;;;9.70
70969;BMP280;58630;43.022;25.100;2023-11-21T02:21:56;;;;9.70
70969;BMP280;58630;43.022;25.100;2023-11-21T02:24:23;;;;9.70
70969;BMP280;58630;43.022;25.100;2023-11-21T02:26:49;;;;9.70
70969;BMP280;58630;43.022;25.100;2023-11-21T02:29:18;;;;9.70
70969;BMP280;58630;43.022;25.100;2023-11-21T02:31:47;;;;9.60
70969;BMP280;58630;43.022;25.100;2023-11-21T02:34:14;;;;9.60
70969;BMP280;58630;43.022;25.100;2023-11-21T02:36:39;;;;9.60
70969;BMP280;58630;43.022;25.100;2023-11-21T02:39:05;;;;9.60
70969;BMP280;58630;43.022;25.100;2023-11-21T02:41:32;;;;9.60
70969;BMP280;58630;43.022;25.100;2023-11-21T02:43:58;;;;9.60
70969;BMP280;58630;43.022;25.100;2023-11-21T02:46:23;;;;9.60
70969;BMP280;58630;43.022;25.100;2023-11-21T02:48:49;;;;9.60
70969;BMP280;58630;43.022;25.100;2023-11-21T02:51:16;;;;9.60
70969;BMP280;58630;43.022;25.100;2023-11-21T02:53:42;;;;9.60
70969;BMP280;58630;43.022;25.100;2023-11-21T02:56:07;;;;9.50
70969;BMP280;58630;43.022;25.100;2023-11-21T02:58:33;;;;9.50
70969;BMP280;58630;43.022;25.100;2023-11-21T03:00:58;;;;9.50
70969;BMP280;58630;43.022;25.100;2023-11-21T03:03:24;;;;9.50
70969;BMP280;58630;43.022;25.100;2023-11-21T03:05:50;;;;9.50
70969;BMP280;58630;43.022;25.100;2023-11-21T03:08:16;;;;9.50
70969;BMP280;58630;43.022;25.100;2023-11-21T03:10:41;;;;9.50
70969;BMP280;58630;43.022;25.100;2023-11-21T03:13:07;;;;9.50
70969;BMP280;58630;43.022;25.100;2023-11-21T03:15:33;;;;9.50
70969;BMP280;58630;43.022;25.100;2023-11-21T03:18:00;;;;9.50
70969;BMP280;58630;43.022;25.100;2023-11-21T03:20:25;;;;9.50
70969;BMP280;58630;43.022;25.100;2023-11-21T03:22:51;;;;9.40
70969;BMP280;58630;43.022;25.100;2023-11-21T03:25:17;;;;9.40
70969;BMP280;58630;43.022;25.100;2023-11-21T03:27:42;;;;9.40
70969;BMP280;58630;43.022;25.100;2023-11-21T03:30:09;;;;9.40
70969;BMP280;58630;43.022;25.100;2023-11-21T03:32:36;;;;9.40
70969;BMP280;58630;43.022;25.100;2023-11-21T03:35:02;;;;9.40
70969;BMP280;58630;43.022;25.100;2023-11-21T03:37:28;;;;9.40
70969;BMP280;58630;43.022;25.100;2023-11-21T03:39:54;;;;9.40
70969;BMP280;58630;43.022;25.100;2023-11-21T03:42:20;;;;9.30
70969;BMP280;58630;43.022;25.100;2023-11-21T03:44:46;;;;9.30
70969;BMP280;58630;43.022;25.100;2023-11-21T03:47:11;;;;9.30
70969;BMP280;58630;43.022;25.100;2023-11-21T03:49:37;;;;9.30
70969;BMP280;58630;43.022;25.100;2023-11-21T03:52:02;;;;9.30
70969;BMP280;58630;43.022;25.100;2023-11-21T03:54:28;;;;9.30
70969;BMP280;58630;43.022;25.100;2023-11-21T03:56:53;;;;9.30
70969;BMP280;58630;43.022;25.100;2023-11-21T03:59:19;;;;9.30
70969;BMP280;58630;43.022;25.100;2023-11-21T04:01:44;;;;9.20
70969;BMP280;58630;43.022;25.100;2023-11-21T04:04:10;;;;9.20
70969;BMP280;58630;43.022;25.100;2023-11-21T04:06:36;;;;9.20
70969;BMP280;58630;43.022;25.100;2023-11-21T04:09:02;;;;9.20
70969;BMP280;58630;43.022;25.100;2023-11-21T04:11:29;;;;9.20
70969;BMP280;58630;43.022;25.100;2023-11-21T04:13:55;;;;9.20
70969;BMP280;58630;43.022;25.100;2023-11-21T04:16:20;;;;9.20
70969;BMP280;58630;43.022;25.100;2023-11-21T04:18:46;;;;9.20
70969;BMP280;58630;43.022;25.100;2023-11-21T04:21:12;;;;9.20
70969;BMP280;58630;43.022;25.100;2023-11-21T04:23:37;;;;9.20
70969;BMP280;58630;43.022;25.100;2023-11-21T04:26:03;;;;9.10
70969;BMP280;58630;43.022;25.100;2023-11-21T04:28:28;;;;9.10
70969;BMP280;58630;43.022;25.100;2023-11-21T04:30:54;;;;9.10
70969;BMP280;58630;43.022;25.100;2023-11-21T04:33:20;;;;9.10
70969;BMP280;58630;43.022;25.100;2023-11-21T04:35:46;;;;9.10
70969;BMP280;58630;43.022;25.100;2023-11-21T04:38:12;;;;9.10
70969;BMP280;58630;43.022;25.100;2023-11-21T04:40:37;;;;9.10
70969;BMP280;58630;43.022;25.100;2023-11-21T04:43:03;;;;9.10
70969;BMP280;58630;43.022;25.100;2023-11-21T04:45:29;;;;9.10
70969;BMP280;58630;43.022;25.100;2023-11-21T04:47:55;;;;9.10
70969;BMP280;58630;43.022;25.100;2023-11-21T04:50:21;;;;9.10
70969;BMP280;58630;43.022;25.100;2023-11-21T04:52:47;;;;9.10
70969;BMP280;58630;43.022;25.100;2023-11-21T04:55:12;;;;9.00
70969;BMP280;58630;43.022;25.100;2023-11-21T04:57:38;;;;9.10
70969;BMP280;58630;43.022;25.100;2023-11-21T05:00:07;;;;9.00
70969;BMP280;58630;43.022;25.100;2023-11-21T05:02:32;;;;9.00
70969;BMP280;58630;43.022;25.100;2023-11-21T05:05:01;;;;9.00
70969;BMP280;58630;43.022;25.100;2023-11-21T05:07:27;;;;9.00
70969;BMP280;58630;43.022;25.100;2023-11-21T05:09:56;;;;9.00
70969;BMP280;58630;43.022;25.100;2023-11-21T05:12:21;;;;9.00
70969;BMP280;58630;43.022;25.100;2023-11-21T05:14:48;;;;9.00
70969;BMP280;58630;43.022;25.100;2023-11-21T05:17:14;;;;9.00
70969;BMP280;58630;43.022;25.100;2023-11-21T05:19:39;;;;9.00
70969;BMP280;58630;43.022;25.100;2023-11-21T05:22:05;;;;9.00
70969;BMP280;58630;43.022;25.100;2023-11-21T05:24:31;;;;9.00
70969;BMP280;58630;43.022;25.100;2023-11-21T05:26:57;;;;9.00
70969;BMP280;58630;43.022;25.100;2023-11-21T05:29:23;;;;9.00
70969;BMP280;58630;43.022;25.100;2023-11-21T05:31:48;;;;9.00
70969;BMP280;58630;43.022;25.100;2023-11-21T05:34:14;;;;8.90
70969;BMP280;58630;43.022;25.100;2023-11-21T05:36:40;;;;8.90
70969;BMP280;58630;43.022;25.100;2023-11-21T05:39:06;;;;8.90
70969;BMP280;58630;43.022;25.100;2023-11-21T05:41:32;;;;8.90
70969;BMP280;58630;43.022;25.100;2023-11-21T05:43:57;;;;8.90
70969;BMP280;58630;43.022;25.100;2023-11-21T05:46:23;;;;8.90
70969;BMP280;58630;43.022;25.100;2023-11-21T05:48:48;;;;8.90
70969;BMP280;58630;43.022;25.100;2023-11-21T05:51:14;;;;8.90
70969;BMP280;58630;43.022;25.100;2023-11-21T05:53:39;;;;8.90
70969;BMP280;58630;43.022;25.100;2023-11-21T05:56:05;;;;8.90
70969;BMP280;58630;43.022;25.100;2023-11-21T05:58:30;;;;8.90
70969;BMP280;58630;43.022;25.100;2023-11-21T06:00:56;;;;8.90
70969;BMP280;58630;43.022;25.100;2023-11-21T06:03:22;;;;8.90
70969;BMP280;58630;43.022;25.100;2023-11-21T06:05:48;;;;8.90
70969;BMP280;58630;43.022;25.100;2023-11-21T06:08:14;;;;8.90
70969;BMP280;58630;43.022;25.100;2023-11-21T06:10:42;;;;8.90
70969;BMP280;58630;43.022;25.100;2023-11-21T06:13:09;;;;8.90
70969;BMP280;58630;43.022;25.100;2023-11-21T06:15:35;;;;8.90
70969;BMP280;58630;43.022;25.100;2023-11-21T06:18:01;;;;8.90
70969;BMP280;58630;43.022;25.100;2023-11-21T06:20:27;;;;8.90
70969;BMP280;58630;43.022;25.100;2023-11-21T06:22:52;;;;8.90
70969;BMP280;58630;43.022;25.100;2023-11-21T06:25:19;;;;8.90
70969;BMP280;58630;43.022;25.100;2023-11-21T06:27:45;;;;8.90
70969;BMP280;58630;43.022;25.100;2023-11-21T06:30:11;;;;8.90
70969;BMP280;58630;43.022;25.100;2023-11-21T06:32:39;;;;8.90
70969;BMP280;58630;43.022;25.100;2023-11-21T06:35:11;;;;8.90
70969;BMP280;58630;43.022;25.100;2023-11-21T06:37:36;;;;8.90
70969;BMP280;58630;43.022;25.100;2023-11-21T06:40:02;;;;8.90
70969;BMP280;58630;43.022;25.100;2023-11-21T06:42:29;;;;8.90
70969;BMP280;58630;43.022;25.100;2023-11-21T06:44:55;;;;8.90
70969;BMP280;58630;43.022;25.100;2023-11-21T06:47:23;;;;8.90
70969;BMP280;58630;43.022;25.100;2023-11-21T06:49:52;;;;8.90
70969;BMP280;58630;43.022;25.100;2023-11-21T06:52:20;;;;8.90
70969;BMP280;58630;43.022;25.100;2023-11-21T06:54:45;;;;8.90
70969;BMP280;58630;43.022;25.100;2023-11-21T06:57:12;;;;8.90
70969;BMP280;58630;43.022;25.100;2023-11-21T06:59:38;;;;8.90
70969;BMP280;58630;43.022;25.100;2023-11-21T07:02:04;;;;8.90
70969;BMP280;58630;43.022;25.100;2023-11-21T07:04:32;;;;8.90
70969;BMP280;58630;43.022;25.100;2023-11-21T07:06:58;;;;9.00
70969;BMP280;58630;43.022;25.100;2023-11-21T07:09:23;;;;8.90
70969;BMP280;58630;43.022;25.100;2023-11-21T07:11:51;;;;9.00
70969;BMP280;58630;43.022;25.100;2023-11-21T07:14:17;;;;9.00
70969;BMP280;58630;43.022;25.100;2023-11-21T07:16:45;;;;9.00
70969;BMP280;58630;43.022;25.100;2023-11-21T07:19:10;;;;9.00
70969;BMP280;58630;43.022;25.100;2023-11-21T07:21:37;;;;9.00
70969;BMP280;58630;43.022;25.100;2023-11-21T07:24:03;;;;9.10
70969;BMP280;58630;43.022;25.100;2023-11-21T07:26:29;;;;9.10
70969;BMP280;58630;43.022;25.100;2023-11-21T07:28:55;;;;9.10
70969;BMP280;58630;43.022;25.100;2023-11-21T07:31:23;;;;9.10
70969;BMP280;58630;43.022;25.100;2023-11-21T07:33:49;;;;9.10
70969;BMP280;58630;43.022;25.100;2023-11-21T07:36:16;;;;9.10
70969;BMP280;58630;43.022;25.100;2023-11-21T07:38:44;;;;9.10
70969;BMP280;58630;43.022;25.100;2023-11-21T07:41:10;;;;9.10
70969;BMP280;58630;43.022;25.100;2023-11-21T07:43:35;;;;9.10
70969;BMP280;58630;43.022;25.100;2023-11-21T07:46:01;;;;9.20
70969;BMP280;58630;43.022;25.100;2023-11-21T07:48:31;;;;9.20
70969;BMP280;58630;43.022;25.100;2023-11-21T07:50:56;;;;9.20
70969;BMP280;58630;43.022;25.100;2023-11-21T07:53:24;;;;9.20
70969;BMP280;58630;43.022;25.100;2023-11-21T07:55:50;;;;9.20
70969;BMP280;58630;43.022;25.100;2023-11-21T07:58:16;;;;9.20
70969;BMP280;58630;43.022;25.100;2023-11-21T08:00:42;;;;9.20
70969;BMP280;58630;43.022;25.100;2023-11-21T08:03:07;;;;9.20
70969;BMP280;58630;43.022;25.100;2023-11-21T08:05:33;;;;9.20
70969;BMP280;58630;43.022;25.100;2023-11-21T08:07:58;;;;9.20
70969;BMP280;58630;43.022;25.100;2023-11-21T08:10:24;;;;9.20
70969;BMP280;58630;43.022;25.100;2023-11-21T08:12:50;;;;9.20
70969;BMP280;58630;43.022;25.100;2023-11-21T08:15:16;;;;9.20
70969;BMP280;58630;43.022;25.100;2023-11-21T08:17:41;;;;9.30
70969;BMP280;58630;43.022;25.100;2023-11-21T08:20:07;;;;9.30
70969;BMP280;58630;43.022;25.100;2023-11-21T08:22:33;;;;9.30
70969;BMP280;58630;43.022;25.100;2023-11-21T08:24:59;;;;9.30
70969;BMP280;58630;43.022;25.100;2023-11-21T08:27:25;;;;9.30
70969;BMP280;58630;43.022;25.100;2023-11-21T08:29:50;;;;9.30
70969;BMP280;58630;43.022;25.100;2023-11-21T08:32:17;;;;9.30
70969;BMP280;58630;43.022;25.100;2023-11-21T08:34:43;;;;9.30
70969;BMP280;58630;43.022;25.100;2023-11-21T08:37:10;;;;9.30
70969;BMP280;58630;43.022;25.100;2023-11-21T08:39:39;;;;9.30
70969;BMP280;58630;43.022;25.100;2023-11-21T08:42:04;;;;9.30
70969;BMP280;58630;43.022;25.100;2023-11-21T08:44:30;;;;9.30
70969;BMP280;58630;43.022;25.100;2023-11-21T08:46:55;;;;9.30
70969;BMP280;58630;43.022;25.100;2023-11-21T08:49:21;;;;9.40
70969;BMP280;58630;43.022;25.100;2023-11-21T08:51:46;;;;9.40
70969;BMP280;58630;43.022;25.100;2023-11-21T08:54:12;;;;9.40
70969;BMP280;58630;43.022;25.100;2023-11-21T08:56:37;;;;9.40
70969;BMP280;58630;43.022;25.100;2023-11-21T08:59:03;;;;9.40
70969;BMP280;58630;43.022;25.100;2023-11-21T09:01:29;;;;9.40
70969;BMP280;58630;43.022;25.100;2023-11-21T09:03:57;;;;9.40
70969;BMP280;58630;43.022;25.100;2023-11-21T09:06:23;;;;9.40
70969;BMP280;58630;43.022;25.100;2023-11-21T09:08:48;;;;9.40
70969;BMP280;58630;43.022;25.100;2023-11-21T09:11:14;;;;9.50
70969;BMP280;58630;43.022;25.100;2023-11-21T09:13:39;;;;9.50
70969;BMP280;58630;43.022;25.100;2023-11-21T09:16:05;;;;9.50
70969;BMP280;58630;43.022;25.100;2023-11-21T09:18:31;;;;9.50
70969;BMP280;58630;43.022;25.100;2023-11-21T09:20:56;;;;9.50
70969;BMP280;58630;43.022;25.100;2023-11-21T09:23:22;;;;9.50
70969;BMP280;58630;43.022;25.100;2023-11-21T09:25:47;;;;9.50
70969;BMP280;58630;43.022;25.100;2023-11-21T09:28:15;;;;9.50
70969;BMP280;58630;43.022;25.100;2023-11-21T09:30:41;;;;9.50
70969;BMP280;58630;43.022;25.100;2023-11-21T09:33:06;;;;9.50
70969;BMP280;58630;43.022;25.100;2023-11-21T09:35:32;;;;9.50
70969;BMP280;58630;43.022;25.100;2023-11-21T09:37:57;;;;9.50
70969;BMP280;58630;43.022;25.100;2023-11-21T09:40:23;;;;9.60
70969;BMP280;58630;43.022;25.100;2023-11-21T09:42:52;;;;9.60
70969;BMP280;58630;43.022;25.100;2023-11-21T09:45:21;;;;9.60
70969;BMP280;58630;43.022;25.100;2023-11-21T09:47:49;;;;9.60
70969;BMP280;58630;43.022;25.100;2023-11-21T09:50:17;;;;9.60
70969;BMP280;58630;43.022;25.100;2023-11-21T09:55:13;;;;9.70
70969;BMP280;58630;43.022;25.100;2023-11-21T09:57:40;;;;9.70
70969;BMP280;58630;43.022;25.100;2023-11-21T10:00:07;;;;9.70
70969;BMP280;58630;43.022;25.100;2023-11-21T10:02:37;;;;9.70
70969;BMP280;58630;43.022;25.100;2023-11-21T10:05:03;;;;9.70
70969;BMP280;58630;43.022;25.100;2023-11-21T10:07:29;;;;9.70
70969;BMP280;58630;43.022;25.100;2023-11-21T10:09:56;;;;9.70
70969;BMP280;58630;43.022;25.100;2023-11-21T10:12:22;;;;9.70
70969;BMP280;58630;43.022;25.100;2023-11-21T10:14:49;;;;9.70
70969;BMP280;58630;43.022;25.100;2023-11-21T10:17:17;;;;9.80
70969;BMP280;58630;43.022;25.100;2023-11-21T10:19:46;;;;9.80
70969;BMP280;58630;43.022;25.100;2023-11-21T10:22:13;;;;9.80
70969;BMP280;58630;43.022;25.100;2023-11-21T10:24:40;;;;9.80
70969;BMP280;58630;43.022;25.100;2023-11-21T10:27:05;;;;9.80
70969;BMP280;58630;43.022;25.100;2023-11-21T10:29:31;;;;9.80
70969;BMP280;58630;43.022;25.100;2023-11-21T10:32:03;;;;9.80
70969;BMP280;58630;43.022;25.100;2023-11-21T10:34:30;;;;9.80
70969;BMP280;58630;43.022;25.100;2023-11-21T10:36:56;;;;9.90
70969;BMP280;58630;43.022;25.100;2023-11-21T10:39:23;;;;9.90
70969;BMP280;58630;43.022;25.100;2023-11-21T10:41:52;;;;9.90
70969;BMP280;58630;43.022;25.100;2023-11-21T10:44:18;;;;9.90
70969;BMP280;58630;43.022;25.100;2023-11-21T10:46:46;;;;9.90
70969;BMP280;58630;43.022;25.100;2023-11-21T10:49:18;;;;9.90
70969;BMP280;58630;43.022;25.100;2023-11-21T10:51:44;;;;9.90
70969;BMP280;58630;43.022;25.100;2023-11-21T10:54:10;;;;10.00
70969;BMP280;58630;43.022;25.100;2023-11-21T10:56:37;;;;10.00
70969;BMP280;58630;43.022;25.100;2023-11-21T10:59:09;;;;10.00
70969;BMP280;58630;43.022;25.100;2023-11-21T11:01:44;;;;10.10
70969;BMP280;58630;43.022;25.100;2023-11-21T11:04:11;;;;10.10
70969;BMP280;58630;43.022;25.100;2023-11-21T11:09:30;;;;10.20
70969;BMP280;58630;43.022;25.100;2023-11-21T11:11:58;;;;10.20
70969;BMP280;58630;43.022;25.100;2023-11-21T11:14:24;;;;10.30
70969;BMP280;58630;43.022;25.100;2023-11-21T11:16:52;;;;10.30
70969;BMP280;58630;43.022;25.100;2023-11-21T11:19:18;;;;10.50
70969;BMP280;58630;43.022;25.100;2023-11-21T11:24:27;;;;10.60
70969;BMP280;58630;43.022;25.100;2023-11-21T11:37:02;;;;10.90
70969;BMP280;58630;43.022;25.100;2023-11-21T11:39:29;;;;11.00
70969;BMP280;58630;43.022;25.100;2023-11-21T11:41:58;;;;11.20
70969;BMP280;58630;43.022;25.100;2023-11-21T11:44:47;;;;11.30
70969;BMP280;58630;43.022;25.100;2023-11-21T11:52:39;;;;11.70
70969;BMP280;58630;43.022;25.100;2023-11-21T11:55:14;;;;11.70
70969;BMP280;58630;43.022;25.100;2023-11-21T11:57:43;;;;11.70
70969;BMP280;58630;43.022;25.100;2023-11-21T12:03:07;;;;11.60
70969;BMP280;58630;43.022;25.100;2023-11-21T12:05:33;;;;11.60
70969;BMP280;58630;43.022;25.100;2023-11-21T12:08:02;;;;11.60
70969;BMP280;58630;43.022;25.100;2023-11-21T12:10:29;;;;11.50
70969;BMP280;58630;43.022;25.100;2023-11-21T12:12:55;;;;11.50
70969;BMP280;58630;43.022;25.100;2023-11-21T12:15:21;;;;11.50
70969;BMP280;58630;43.022;25.100;2023-11-21T12:17:47;;;;11.40
70969;BMP280;58630;43.022;25.100;2023-11-21T12:20:14;;;;11.40
70969;BMP280;58630;43.022;25.100;2023-11-21T12:25:36;;;;11.40
70969;BMP280;58630;43.022;25.100;2023-11-21T12:28:02;;;;11.40
70969;BMP280;58630;43.022;25.100;2023-11-21T12:30:29;;;;11.40
70969;BMP280;58630;43.022;25.100;2023-11-21T12:32:56;;;;11.40
70969;BMP280;58630;43.022;25.100;2023-11-21T12:35:26;;;;11.40
70969;BMP280;58630;43.022;25.100;2023-11-21T12:37:52;;;;11.30
70969;BMP280;58630;43.022;25.100;2023-11-21T12:40:19;;;;11.30
70969;BMP280;58630;43.022;25.100;2023-11-21T12:42:45;;;;11.30
70969;BMP280;58630;43.022;25.100;2023-11-21T12:47:41;;;;11.30
70969;BMP280;58630;43.022;25.100;2023-11-21T12:50:06;;;;11.30
70969;BMP280;58630;43.022;25.100;2023-11-21T12:52:32;;;;11.30
70969;BMP280;58630;43.022;25.100;2023-11-21T12:54:58;;;;11.30
70969;BMP280;58630;43.022;25.100;2023-11-21T12:57:26;;;;11.30
70969;BMP280;58630;43.022;25.100;2023-11-21T12:59:56;;;;11.30
70969;BMP280;58630;43.022;25.100;2023-11-21T13:02:25;;;;11.40
70969;BMP280;58630;43.022;25.100;2023-11-21T13:04:52;;;;11.40
70969;BMP280;58630;43.022;25.100;2023-11-21T13:07:18;;;;11.40
70969;BMP280;58630;43.022;25.100;2023-11-21T13:09:45;;;;11.40
70969;BMP280;58630;43.022;25.100;2023-11-21T13:12:11;;;;11.40
70969;BMP280;58630;43.022;25.100;2023-11-21T13:14:39;;;;11.40
70969;BMP280;58630;43.022;25.100;2023-11-21T13:17:05;;;;11.40
70969;BMP280;58630;43.022;25.100;2023-11-21T13:19:30;;;;11.40
70969;BMP280;58630;43.022;25.100;2023-11-21T13:21:56;;;;11.50
70969;BMP280;58630;43.022;25.100;2023-11-21T13:24:21;;;;11.50
70969;BMP280;58630;43.022;25.100;2023-11-21T13:26:47;;;;11.50
70969;BMP280;58630;43.022;25.100;2023-11-21T13:29:14;;;;11.50
70969;BMP280;58630;43.022;25.100;2023-11-21T13:31:41;;;;11.50
70969;BMP280;58630;43.022;25.100;2023-11-21T13:34:07;;;;11.50
70969;BMP280;58630;43.022;25.100;2023-11-21T13:36:33;;;;11.60
70969;BMP280;58630;43.022;25.100;2023-11-21T13:39:00;;;;11.60
70969;BMP280;58630;43.022;25.100;2023-11-21T13:41:33;;;;11.60
70969;BMP280;58630;43.022;25.100;2023-11-21T13:43:58;;;;11.60
70969;BMP280;58630;43.022;25.100;2023-11-21T13:46:39;;;;11.60
70969;BMP280;58630;43.022;25.100;2023-11-21T13:49:05;;;;11.60
70969;BMP280;58630;43.022;25.100;2023-11-21T13:51:35;;;;11.60
70969;BMP280;58630;43.022;25.100;2023-11-21T13:54:10;;;;11.60
70969;BMP280;58630;43.022;25.100;2023-11-21T13:56:36;;;;11.60
70969;BMP280;58630;43.022;25.100;2023-11-21T13:59:02;;;;11.60
70969;BMP280;58630;43.022;25.100;2023-11-21T14:01:38;;;;11.60
70969;BMP280;58630;43.022;25.100;2023-11-21T14:04:25;;;;11.60
70969;BMP280;58630;43.022;25.100;2023-11-21T14:06:56;;;;11.60
70969;BMP280;58630;43.022;25.100;2023-11-21T14:09:22;;;;11.60
70969;BMP280;58630;43.022;25.100;2023-11-21T14:11:50;;;;11.60
70969;BMP280;58630;43.022;25.100;2023-11-21T14:14:17;;;;11.60
70969;BMP280;58630;43.022;25.100;2023-11-21T14:16:43;;;;11.60
70969;BMP280;58630;43.022;25.100;2023-11-21T14:19:10;;;;11.60
70969;BMP280;58630;43.022;25.100;2023-11-21T14:21:41;;;;11.60
70969;BMP280;58630;43.022;25.100;2023-11-21T14:24:10;;;;11.60
70969;BMP280;58630;43.022;25.100;2023-11-21T14:26:41;;;;11.60
70969;BMP280;58630;43.022;25.100;2023-11-21T14:29:07;;;;11.60
70969;BMP280;58630;43.022;25.100;2023-11-21T14:33:02;;;;11.70
70969;BMP280;58630;43.022;25.100;2023-11-21T14:35:28;;;;11.60
70969;BMP280;58630;43.022;25.100;2023-11-21T14:37:58;;;;11.60
70969;BMP280;58630;43.022;25.100;2023-11-21T14:40:23;;;;11.60
70969;BMP280;58630;43.022;25.100;2023-11-21T14:42:52;;;;11.60
70969;BMP280;58630;43.022;25.100;2023-11-21T14:45:19;;;;11.60
70969;BMP280;58630;43.022;25.100;2023-11-21T14:47:47;;;;11.60
70969;BMP280;58630;43.022;25.100;2023-11-21T14:50:33;;;;11.60
70969;BMP280;58630;43.022;25.100;2023-11-21T14:53:08;;;;11.60
70969;BMP280;58630;43.022;25.100;2023-11-21T14:55:34;;;;11.60
70969;BMP280;58630;43.022;25.100;2023-11-21T14:58:15;;;;11.60
70969;BMP280;58630;43.022;25.100;2023-11-21T15:00:47;;;;11.60
70969;BMP280;58630;43.022;25.100;2023-11-21T15:03:13;;;;11.60
70969;BMP280;58630;43.022;25.100;2023-11-21T15:06:08;;;;11.60
70969;BMP280;58630;43.022;25.100;2023-11-21T15:09:03;;;;11.60
70969;BMP280;58630;43.022;25.100;2023-11-21T15:11:34;;;;11.60
70969;BMP280;58630;43.022;25.100;2023-11-21T15:14:00;;;;11.60
70969;BMP280;58630;43.022;25.100;2023-11-21T15:16:30;;;;11.60
70969;BMP280;58630;43.022;25.100;2023-11-21T15:18:56;;;;11.60
70969;BMP280;58630;43.022;25.100;2023-11-21T15:21:23;;;;11.60
70969;BMP280;58630;43.022;25.100;2023-11-21T15:23:49;;;;11.60
70969;BMP280;58630;43.022;25.100;2023-11-21T15:26:16;;;;11.60
70969;BMP280;58630;43.022;25.100;2023-11-21T15:28:41;;;;11.60
70969;BMP280;58630;43.022;25.100;2023-11-21T15:31:07;;;;11.60
70969;BMP280;58630;43.022;25.100;2023-11-21T15:33:33;;;;11.60
70969;BMP280;58630;43.022;25.100;2023-11-21T15:36:01;;;;11.60
70969;BMP280;58630;43.022;25.100;2023-11-21T15:38:27;;;;11.60
70969;BMP280;58630;43.022;25.100;2023-11-21T15:40:53;;;;11.60
70969;BMP280;58630;43.022;25.100;2023-11-21T15:43:19;;;;11.60
70969;BMP280;58630;43.022;25.100;2023-11-21T15:45:45;;;;11.60
70969;BMP280;58630;43.022;25.100;2023-11-21T15:48:10;;;;11.60
70969;BMP280;58630;43.022;25.100;2023-11-21T15:50:36;;;;11.60
70969;BMP280;58630;43.022;25.100;2023-11-21T15:53:02;;;;11.60
70969;BMP280;58630;43.022;25.100;2023-11-21T15:55:30;;;;11.60
70969;BMP280;58630;43.022;25.100;2023-11-21T15:57:56;;;;11.60
70969;BMP280;58630;43.022;25.100;2023-11-21T16:00:21;;;;11.60
70969;BMP280;58630;43.022;25.100;2023-11-21T16:02:49;;;;11.60
70969;BMP280;58630;43.022;25.100;2023-11-21T16:05:15;;;;11.60
70969;BMP280;58630;43.022;25.100;2023-11-21T16:07:41;;;;11.60
70969;BMP280;58630;43.022;25.100;2023-11-21T16:10:07;;;;11.60
70969;BMP280;58630;43.022;25.100;2023-11-21T16:12:39;;;;11.60
70969;BMP280;58630;43.022;25.100;2023-11-21T16:15:07;;;;11.60
70969;BMP280;58630;43.022;25.100;2023-11-21T16:17:37;;;;11.60
70969;BMP280;58630;43.022;25.100;2023-11-21T16:20:03;;;;11.60
70969;BMP280;58630;43.022;25.100;2023-11-21T16:22:34;;;;11.60
70969;BMP280;58630;43.022;25.100;2023-11-21T16:24:59;;;;11.60